createdAt,value
2022-11-17T00:00:43.062Z,23.69
2022-11-17T00:01:43.045Z,23.31
2022-11-17T00:02:43.101Z,23.69
2022-11-17T00:03:43.022Z,23.20
2022-11-17T00:04:43.019Z,23.47
2022-11-17T00:05:43.001Z,23.69
2022-11-17T00:06:42.991Z,23.26
2022-11-17T00:07:43.074Z,23.63
2022-11-17T00:08:43.077Z,23.31
2022-11-17T00:09:42.947Z,23.74
2022-11-17T00:10:42.927Z,23.31
2022-11-17T00:11:42.909Z,23.20
2022-11-17T00:12:42.902Z,23.26
2022-11-17T00:13:42.883Z,23.69
2022-11-17T00:14:42.875Z,23.31
2022-11-17T00:15:42.858Z,23.15
2022-11-17T00:16:42.846Z,23.58
2022-11-17T00:17:42.829Z,23.36
2022-11-17T00:18:42.819Z,23.31
2022-11-17T00:19:42.806Z,23.63
2022-11-17T00:20:42.799Z,23.69
2022-11-17T00:21:42.784Z,22.99
2022-11-17T00:22:42.767Z,23.63
2022-11-17T00:23:42.755Z,23.69
2022-11-17T00:24:42.857Z,23.26
2022-11-17T00:25:42.720Z,23.31
2022-11-17T00:26:42.711Z,23.31
2022-11-17T00:27:42.692Z,23.10
2022-11-17T00:28:42.683Z,23.58
2022-11-17T00:29:42.666Z,23.26
2022-11-17T00:30:44.049Z,23.63
2022-11-17T00:31:42.641Z,23.69
2022-11-17T00:32:42.629Z,23.31
2022-11-17T00:33:42.611Z,23.31
2022-11-17T00:34:42.602Z,23.63
2022-11-17T00:35:42.585Z,23.79
2022-11-17T00:36:42.577Z,23.53
2022-11-17T00:37:42.560Z,23.26
2022-11-17T00:38:42.545Z,23.47
2022-11-17T00:39:42.533Z,23.26
2022-11-17T00:40:42.654Z,23.69
2022-11-17T00:41:42.500Z,23.36
2022-11-17T00:42:42.493Z,23.26
2022-11-17T00:43:42.478Z,23.69
2022-11-17T00:44:42.467Z,23.31
2022-11-17T00:45:42.451Z,23.36
2022-11-17T00:46:42.446Z,23.58
2022-11-17T00:47:42.431Z,23.36
2022-11-17T00:48:42.420Z,23.26
2022-11-17T00:49:42.395Z,23.69
2022-11-17T00:50:42.385Z,23.26
2022-11-17T00:51:42.366Z,23.26
2022-11-17T00:52:42.355Z,23.26
2022-11-17T00:53:42.338Z,23.69
2022-11-17T00:54:42.326Z,23.69
2022-11-17T00:55:42.363Z,23.85
2022-11-17T00:56:42.423Z,23.31
2022-11-17T00:57:42.286Z,23.31
2022-11-17T00:58:42.280Z,23.26
2022-11-17T00:59:42.262Z,23.58
2022-11-17T01:00:42.254Z,23.15
2022-11-17T01:01:42.311Z,23.79
2022-11-17T01:02:42.223Z,23.96
2022-11-17T01:03:42.214Z,23.69
2022-11-17T01:04:42.196Z,23.10
2022-11-17T01:05:42.175Z,23.74
2022-11-17T01:06:42.170Z,23.26
2022-11-17T01:07:42.144Z,23.63
2022-11-17T01:08:42.140Z,23.36
2022-11-17T01:09:42.121Z,23.31
2022-11-17T01:10:42.106Z,23.26
2022-11-17T01:11:42.093Z,23.74
2022-11-17T01:12:42.193Z,23.53
2022-11-17T01:13:42.072Z,23.63
2022-11-17T01:14:42.055Z,23.26
2022-11-17T01:15:42.049Z,23.26
2022-11-17T01:16:42.027Z,23.63
2022-11-17T01:17:42.017Z,23.26
2022-11-17T01:18:42.000Z,23.20
2022-11-17T01:19:41.992Z,23.74
2022-11-17T01:20:41.978Z,23.42
2022-11-17T01:21:41.963Z,23.36
2022-11-17T01:22:41.941Z,23.74
2022-11-17T01:23:41.934Z,23.36
2022-11-17T01:24:41.917Z,23.31
2022-11-17T01:25:41.902Z,23.31
2022-11-17T01:26:41.890Z,23.26
2022-11-17T01:27:41.883Z,23.26
2022-11-17T01:28:41.894Z,23.36
2022-11-17T01:29:41.848Z,23.31
2022-11-17T01:30:41.837Z,23.74
2022-11-17T01:31:41.826Z,23.20
2022-11-17T01:32:41.814Z,23.42
2022-11-17T01:33:41.802Z,23.69
2022-11-17T01:34:41.788Z,23.42
2022-11-17T01:35:41.776Z,23.36
2022-11-17T01:36:41.755Z,23.31
2022-11-17T01:37:41.749Z,23.31
2022-11-17T01:38:41.740Z,23.69
2022-11-17T01:39:41.721Z,23.63
2022-11-17T01:40:41.694Z,23.69
2022-11-17T01:41:41.691Z,23.69
2022-11-17T01:42:41.672Z,23.36
2022-11-17T01:43:41.733Z,23.20
2022-11-17T01:44:41.668Z,23.26
2022-11-17T01:45:41.638Z,23.26
2022-11-17T01:46:41.617Z,23.31
2022-11-17T01:47:41.611Z,23.26
2022-11-17T01:48:41.594Z,23.31
2022-11-17T01:49:41.577Z,23.26
2022-11-17T01:50:41.561Z,23.31
2022-11-17T01:51:41.556Z,23.79
2022-11-17T01:52:41.803Z,23.36
2022-11-17T01:53:41.526Z,23.26
2022-11-17T01:54:41.514Z,23.26
2022-11-17T01:55:41.503Z,23.63
2022-11-17T01:56:41.484Z,23.26
2022-11-17T01:57:41.475Z,23.69
2022-11-17T01:58:41.461Z,23.31
2022-11-17T01:59:41.443Z,23.26
2022-11-17T02:00:41.551Z,23.36
2022-11-17T02:01:41.488Z,23.63
2022-11-17T02:02:41.404Z,23.63
2022-11-17T02:03:41.392Z,23.26
2022-11-17T02:04:41.378Z,23.69
2022-11-17T02:05:41.365Z,23.31
2022-11-17T02:06:41.349Z,23.69
2022-11-17T02:07:41.334Z,23.69
2022-11-17T02:08:41.315Z,23.69
2022-11-17T02:09:41.308Z,23.26
2022-11-17T02:10:41.296Z,23.31
2022-11-17T02:11:41.288Z,23.26
2022-11-17T02:12:41.269Z,23.15
2022-11-17T02:13:41.256Z,23.31
2022-11-17T02:14:41.238Z,23.26
2022-11-17T02:15:41.235Z,23.69
2022-11-17T02:16:41.325Z,23.26
2022-11-17T02:17:41.201Z,23.74
2022-11-17T02:18:41.180Z,23.26
2022-11-17T02:19:41.175Z,23.53
2022-11-17T02:20:41.155Z,23.26
2022-11-17T02:21:41.148Z,23.20
2022-11-17T02:22:41.131Z,23.69
2022-11-17T02:23:41.125Z,23.36
2022-11-17T02:24:41.100Z,24.01
2022-11-17T02:25:41.095Z,23.31
2022-11-17T02:26:41.079Z,23.26
2022-11-17T02:27:41.075Z,23.69
2022-11-17T02:28:41.054Z,23.31
2022-11-17T02:29:41.039Z,23.74
2022-11-17T02:30:41.015Z,23.69
2022-11-17T02:31:41.010Z,23.69
2022-11-17T02:32:41.107Z,23.26
2022-11-17T02:33:40.987Z,23.74
2022-11-17T02:34:40.971Z,23.58
2022-11-17T02:35:40.960Z,23.31
2022-11-17T02:36:40.941Z,23.26
2022-11-17T02:37:40.929Z,23.26
2022-11-17T02:38:40.913Z,23.36
2022-11-17T02:39:40.894Z,23.31
2022-11-17T02:40:40.886Z,23.26
2022-11-17T02:41:40.880Z,23.69
2022-11-17T02:42:40.859Z,23.31
2022-11-17T02:43:40.848Z,23.69
2022-11-17T02:44:40.831Z,23.31
2022-11-17T02:45:40.827Z,23.26
2022-11-17T02:46:40.808Z,23.69
2022-11-17T02:47:40.797Z,23.47
2022-11-17T02:48:40.867Z,23.26
2022-11-17T02:49:40.764Z,23.36
2022-11-17T02:50:40.747Z,23.26
2022-11-17T02:51:40.733Z,23.69
2022-11-17T02:52:40.719Z,23.26
2022-11-17T02:53:40.710Z,23.26
2022-11-17T02:54:40.690Z,23.31
2022-11-17T02:55:40.682Z,23.26
2022-11-17T02:56:40.669Z,23.31
2022-11-17T02:57:40.657Z,23.63
2022-11-17T02:58:40.643Z,23.31
2022-11-17T02:59:40.628Z,23.26
2022-11-17T03:00:40.616Z,23.26
2022-11-17T03:01:40.657Z,23.26
2022-11-17T03:02:40.586Z,23.10
2022-11-17T03:03:40.576Z,23.96
2022-11-17T03:04:40.671Z,23.26
2022-11-17T03:05:40.545Z,23.26
2022-11-17T03:06:40.528Z,23.26
2022-11-17T03:07:40.518Z,23.26
2022-11-17T03:08:40.498Z,23.26
2022-11-17T03:09:40.491Z,23.26
2022-11-17T03:10:40.472Z,23.31
2022-11-17T03:11:40.462Z,23.74
2022-11-17T03:12:40.444Z,23.26
2022-11-17T03:13:40.447Z,23.42
2022-11-17T03:14:40.421Z,23.31
2022-11-17T03:15:40.416Z,23.26
2022-11-17T03:16:40.393Z,23.42
2022-11-17T03:17:40.385Z,23.85
2022-11-17T03:18:40.369Z,23.26
2022-11-17T03:19:40.355Z,23.74
2022-11-17T03:20:40.356Z,23.31
2022-11-17T03:21:40.329Z,23.26
2022-11-17T03:22:40.315Z,23.31
2022-11-17T03:23:40.306Z,23.26
2022-11-17T03:24:40.289Z,23.85
2022-11-17T03:25:40.276Z,23.31
2022-11-17T03:26:40.263Z,23.31
2022-11-17T03:27:40.253Z,23.31
2022-11-17T03:28:40.238Z,23.63
2022-11-17T03:29:40.223Z,23.69
2022-11-17T03:30:40.205Z,23.31
2022-11-17T03:31:40.194Z,23.47
2022-11-17T03:32:40.183Z,23.74
2022-11-17T03:33:40.168Z,23.42
2022-11-17T03:34:40.164Z,23.36
2022-11-17T03:35:40.143Z,23.31
2022-11-17T03:36:40.247Z,23.31
2022-11-17T03:37:40.115Z,23.26
2022-11-17T03:38:40.101Z,23.26
2022-11-17T03:39:40.129Z,23.31
2022-11-17T03:40:40.073Z,23.47
2022-11-17T03:41:40.059Z,23.36
2022-11-17T03:42:40.050Z,23.31
2022-11-17T03:43:40.033Z,22.72
2022-11-17T03:44:40.027Z,23.36
2022-11-17T03:45:40.006Z,23.63
2022-11-17T03:46:39.987Z,23.04
2022-11-17T03:47:39.971Z,23.20
2022-11-17T03:48:39.963Z,23.69
2022-11-17T03:49:39.952Z,23.69
2022-11-17T03:50:39.945Z,22.61
2022-11-17T03:51:39.921Z,23.20
2022-11-17T03:52:39.933Z,23.31
2022-11-17T03:53:39.894Z,23.26
2022-11-17T03:54:39.879Z,23.36
2022-11-17T03:55:39.868Z,23.31
2022-11-17T03:56:39.855Z,23.74
2022-11-17T03:57:39.839Z,23.15
2022-11-17T03:58:39.833Z,23.36
2022-11-17T03:59:39.867Z,23.31
2022-11-17T04:00:39.807Z,23.26
2022-11-17T04:01:39.890Z,22.61
2022-11-17T04:02:39.774Z,22.61
2022-11-17T04:03:39.755Z,23.63
2022-11-17T04:04:39.744Z,23.26
2022-11-17T04:05:39.729Z,22.72
2022-11-17T04:06:39.718Z,23.63
2022-11-17T04:07:39.716Z,23.74
2022-11-17T04:08:39.803Z,23.26
2022-11-17T04:09:39.672Z,23.69
2022-11-17T04:10:39.670Z,23.69
2022-11-17T04:11:39.648Z,23.74
2022-11-17T04:12:39.642Z,23.20
2022-11-17T04:13:39.619Z,23.36
2022-11-17T04:14:39.608Z,23.63
2022-11-17T04:15:39.593Z,23.31
2022-11-17T04:16:39.587Z,23.36
2022-11-17T04:17:39.564Z,23.31
2022-11-17T04:18:39.562Z,22.77
2022-11-17T04:19:39.541Z,23.36
2022-11-17T04:20:39.537Z,23.69
2022-11-17T04:21:39.517Z,23.31
2022-11-17T04:22:39.501Z,23.20
2022-11-17T04:23:39.482Z,23.69
2022-11-17T04:24:39.593Z,23.74
2022-11-17T04:25:39.458Z,23.58
2022-11-17T04:26:39.454Z,23.69
2022-11-17T04:27:39.435Z,23.20
2022-11-17T04:28:39.430Z,23.74
2022-11-17T04:29:39.407Z,23.26
2022-11-17T04:30:39.393Z,23.74
2022-11-17T04:31:39.373Z,23.69
2022-11-17T04:32:39.361Z,23.69
2022-11-17T04:33:39.348Z,23.04
2022-11-17T04:34:39.345Z,23.26
2022-11-17T04:35:39.324Z,23.31
2022-11-17T04:36:39.315Z,22.72
2022-11-17T04:37:39.293Z,23.36
2022-11-17T04:38:39.280Z,23.63
2022-11-17T04:39:39.263Z,23.74
2022-11-17T04:40:39.273Z,23.26
2022-11-17T04:41:39.239Z,23.31
2022-11-17T04:42:39.232Z,23.47
2022-11-17T04:43:39.218Z,23.36
2022-11-17T04:44:39.203Z,23.36
2022-11-17T04:45:39.183Z,23.36
2022-11-17T04:46:39.179Z,23.31
2022-11-17T04:47:39.161Z,23.79
2022-11-17T04:48:39.149Z,23.63
2022-11-17T04:49:39.137Z,23.85
2022-11-17T04:50:39.121Z,23.26
2022-11-17T04:51:39.108Z,23.31
2022-11-17T04:52:39.095Z,23.26
2022-11-17T04:53:39.082Z,23.69
2022-11-17T04:54:39.067Z,23.31
2022-11-17T04:55:39.051Z,23.31
2022-11-17T04:56:39.121Z,23.69
2022-11-17T04:57:39.029Z,22.72
2022-11-17T04:58:39.020Z,23.69
2022-11-17T04:59:39.009Z,23.63
2022-11-17T05:00:38.993Z,23.63
2022-11-17T05:01:38.969Z,23.26
2022-11-17T05:02:39.069Z,23.26
2022-11-17T05:03:38.945Z,23.69
2022-11-17T05:04:38.930Z,23.69
2022-11-17T05:05:38.915Z,23.63
2022-11-17T05:06:38.906Z,23.36
2022-11-17T05:07:38.974Z,23.36
2022-11-17T05:08:38.888Z,23.74
2022-11-17T05:09:38.870Z,23.63
2022-11-17T05:10:38.894Z,23.47
2022-11-17T05:11:38.841Z,23.31
2022-11-17T05:12:38.946Z,23.31
2022-11-17T05:13:38.852Z,23.26
2022-11-17T05:14:38.809Z,23.36
2022-11-17T05:15:38.782Z,23.31
2022-11-17T05:16:38.773Z,23.26
2022-11-17T05:17:38.760Z,23.31
2022-11-17T05:18:38.750Z,23.31
2022-11-17T05:19:38.732Z,23.26
2022-11-17T05:20:38.723Z,22.50
2022-11-17T05:21:38.710Z,23.31
2022-11-17T05:22:38.693Z,23.31
2022-11-17T05:23:38.680Z,23.79
2022-11-17T05:24:38.670Z,23.20
2022-11-17T05:25:38.649Z,22.67
2022-11-17T05:26:38.639Z,23.31
2022-11-17T05:27:38.633Z,23.26
2022-11-17T05:28:38.635Z,23.36
2022-11-17T05:29:38.606Z,23.36
2022-11-17T05:30:38.583Z,23.26
2022-11-17T05:31:38.569Z,23.31
2022-11-17T05:32:38.557Z,23.31
2022-11-17T05:33:38.717Z,23.26
2022-11-17T05:34:38.535Z,23.31
2022-11-17T05:35:38.524Z,23.31
2022-11-17T05:36:38.510Z,23.63
2022-11-17T05:37:38.498Z,23.63
2022-11-17T05:38:38.479Z,23.26
2022-11-17T05:39:38.483Z,22.72
2022-11-17T05:40:38.453Z,22.67
2022-11-17T05:41:38.443Z,23.42
2022-11-17T05:42:38.424Z,23.58
2022-11-17T05:43:38.462Z,23.31
2022-11-17T05:44:38.416Z,22.72
2022-11-17T05:45:38.387Z,23.10
2022-11-17T05:46:38.377Z,22.77
2022-11-17T05:47:38.364Z,23.69
2022-11-17T05:48:38.344Z,22.72
2022-11-17T05:49:38.351Z,23.31
2022-11-17T05:50:38.328Z,23.26
2022-11-17T05:51:38.364Z,23.31
2022-11-17T05:52:38.295Z,22.67
2022-11-17T05:53:38.400Z,23.31
2022-11-17T05:54:38.269Z,22.72
2022-11-17T05:55:38.252Z,22.72
2022-11-17T05:56:38.240Z,23.47
2022-11-17T05:57:38.230Z,23.26
2022-11-17T05:58:38.215Z,23.26
2022-11-17T05:59:38.208Z,23.36
2022-11-17T06:00:38.302Z,23.47
2022-11-17T06:01:38.181Z,22.77
2022-11-17T06:02:38.158Z,22.72
2022-11-17T06:03:38.416Z,22.67
2022-11-17T06:04:38.168Z,22.67
2022-11-17T06:05:38.125Z,22.72
2022-11-17T06:06:38.109Z,22.77
2022-11-17T06:07:38.173Z,22.77
2022-11-17T06:08:38.081Z,23.20
2022-11-17T06:09:38.077Z,22.67
2022-11-17T06:10:38.054Z,22.67
2022-11-17T06:11:38.038Z,22.99
2022-11-17T06:12:38.023Z,22.99
2022-11-17T06:13:38.388Z,22.72
2022-11-17T06:14:38.001Z,22.61
2022-11-17T06:15:37.991Z,23.53
2022-11-17T06:16:38.090Z,23.36
2022-11-17T06:17:37.963Z,22.72
2022-11-17T06:18:37.948Z,22.67
2022-11-17T06:19:37.941Z,22.77
2022-11-17T06:20:37.923Z,22.72
2022-11-17T06:22:04.532Z,22.67
2022-11-17T06:22:41.799Z,22.72
2022-11-17T06:23:38.198Z,22.93
2022-11-17T06:24:37.865Z,22.67
2022-11-17T06:25:37.857Z,22.72
2022-11-17T06:26:37.843Z,22.61
2022-11-17T06:27:37.831Z,22.72
2022-11-17T06:28:37.817Z,22.72
2022-11-17T06:29:43.653Z,23.31
2022-11-17T06:30:38.808Z,22.77
2022-11-17T06:31:37.775Z,22.72
2022-11-17T06:32:37.816Z,22.67
2022-11-17T06:33:38.023Z,22.67
2022-11-17T06:34:37.736Z,22.83
2022-11-17T06:35:37.728Z,22.72
2022-11-17T06:36:37.706Z,22.72
2022-11-17T06:37:37.714Z,22.77
2022-11-17T06:38:37.675Z,22.72
2022-11-17T06:39:37.672Z,22.72
2022-11-17T06:40:37.651Z,22.88
2022-11-17T06:41:37.641Z,23.36
2022-11-17T06:42:37.627Z,23.26
2022-11-17T06:43:37.969Z,22.77
2022-11-17T06:44:37.598Z,22.72
2022-11-17T06:45:37.591Z,22.93
2022-11-17T06:46:37.569Z,22.77
2022-11-17T06:47:37.561Z,22.77
2022-11-17T06:48:38.221Z,22.72
2022-11-17T06:49:37.532Z,22.72
2022-11-17T06:50:37.516Z,22.83
2022-11-17T06:51:42.318Z,22.83
2022-11-17T06:52:38.523Z,22.77
2022-11-17T06:53:37.871Z,22.77
2022-11-17T06:54:37.460Z,22.72
2022-11-17T06:55:37.453Z,23.63
2022-11-17T06:56:37.436Z,22.77
2022-11-17T06:57:37.424Z,23.36
2022-11-17T06:58:37.815Z,22.56
2022-11-17T06:59:37.399Z,22.72
2022-11-17T07:00:37.453Z,22.67
2022-11-17T07:01:37.376Z,22.72
2022-11-17T07:02:37.354Z,22.72
2022-11-17T07:03:37.565Z,22.67
2022-11-17T07:04:37.442Z,22.72
2022-11-17T07:05:39.245Z,22.77
2022-11-17T07:06:37.301Z,22.67
2022-11-17T07:07:37.351Z,22.67
2022-11-17T07:08:37.556Z,22.72
2022-11-17T07:09:37.264Z,22.67
2022-11-17T07:10:37.244Z,22.72
2022-11-17T07:11:37.237Z,22.72
2022-11-17T07:12:37.216Z,22.72
2022-11-17T07:13:37.207Z,22.56
2022-11-17T07:14:37.192Z,22.72
2022-11-17T07:15:37.186Z,22.67
2022-11-17T07:16:37.167Z,23.26
2022-11-17T07:17:37.157Z,22.72
2022-11-17T07:18:37.424Z,22.61
2022-11-17T07:19:37.127Z,22.72
2022-11-17T07:20:37.236Z,22.77
2022-11-17T07:21:37.101Z,22.77
2022-11-17T07:22:37.089Z,22.72
2022-11-17T07:23:37.082Z,22.77
2022-11-17T07:24:37.066Z,22.72
2022-11-17T07:25:37.050Z,22.77
2022-11-17T07:26:37.031Z,22.67
2022-11-17T07:27:37.027Z,23.26
2022-11-17T07:28:37.382Z,22.72
2022-11-17T07:29:37.002Z,23.36
2022-11-17T07:30:36.985Z,22.72
2022-11-17T07:31:36.977Z,22.67
2022-11-17T07:32:36.953Z,22.77
2022-11-17T07:33:36.959Z,22.72
2022-11-17T07:34:36.925Z,22.67
2022-11-17T07:35:36.920Z,22.77
2022-11-17T07:36:37.017Z,22.72
2022-11-17T07:37:36.892Z,22.67
2022-11-17T07:38:37.291Z,22.99
2022-11-17T07:39:36.874Z,23.26
2022-11-17T07:40:36.856Z,22.72
2022-11-17T07:41:36.840Z,22.72
2022-11-17T07:42:36.824Z,23.31
2022-11-17T07:43:36.815Z,22.67
2022-11-17T07:44:36.798Z,22.72
2022-11-17T07:45:36.788Z,22.72
2022-11-17T07:46:36.766Z,22.88
2022-11-17T07:47:36.757Z,22.72
2022-11-17T07:48:37.099Z,22.72
2022-11-17T07:49:36.726Z,22.83
2022-11-17T07:50:36.722Z,22.77
2022-11-17T07:51:36.705Z,22.72
2022-11-17T07:52:41.252Z,22.67
2022-11-17T07:53:36.670Z,22.72
2022-11-17T07:54:36.661Z,22.67
2022-11-17T07:55:36.653Z,22.72
2022-11-17T07:56:36.634Z,22.67
2022-11-17T07:57:36.626Z,22.77
2022-11-17T07:58:36.990Z,22.83
2022-11-17T07:59:36.594Z,22.72
2022-11-17T08:00:36.634Z,22.83
2022-11-17T08:01:36.578Z,22.88
2022-11-17T08:02:36.551Z,23.26
2022-11-17T08:03:36.588Z,22.72
2022-11-17T08:04:36.523Z,22.77
2022-11-17T08:05:43.063Z,22.83
2022-11-17T08:06:37.527Z,22.72
2022-11-17T08:07:36.583Z,22.45
2022-11-17T08:08:36.986Z,22.72
2022-11-17T08:09:36.467Z,22.67
2022-11-17T08:10:36.442Z,22.67
2022-11-17T08:11:36.439Z,22.72
2022-11-17T08:12:36.415Z,22.72
2022-11-17T08:13:36.407Z,22.77
2022-11-17T08:14:36.389Z,22.93
2022-11-17T08:15:36.382Z,23.26
2022-11-17T08:16:36.364Z,22.67
2022-11-17T08:17:36.357Z,22.72
2022-11-17T08:18:36.871Z,23.36
2022-11-17T08:19:36.332Z,22.77
2022-11-17T08:20:36.315Z,23.47
2022-11-17T08:21:36.305Z,23.31
2022-11-17T08:22:36.290Z,22.83
2022-11-17T08:23:36.280Z,23.26
2022-11-17T08:24:36.377Z,22.72
2022-11-17T08:25:36.252Z,22.88
2022-11-17T08:26:36.228Z,22.67
2022-11-17T08:27:36.224Z,22.67
2022-11-17T08:28:36.592Z,22.61
2022-11-17T08:29:36.195Z,23.31
2022-11-17T08:30:36.185Z,22.83
2022-11-17T08:31:36.167Z,23.20
2022-11-17T08:32:36.156Z,22.77
2022-11-17T08:33:36.142Z,23.20
2022-11-17T08:34:36.124Z,23.31
2022-11-17T08:35:37.740Z,23.31
2022-11-17T08:36:36.103Z,23.31
2022-11-17T08:37:36.091Z,23.31
2022-11-17T08:38:36.411Z,23.20
2022-11-17T08:39:36.065Z,23.20
2022-11-17T08:40:36.071Z,23.36
2022-11-17T08:41:36.033Z,22.88
2022-11-17T08:42:36.020Z,23.31
2022-11-17T08:43:36.013Z,23.31
2022-11-17T08:44:36.014Z,23.31
2022-11-17T08:45:35.988Z,23.26
2022-11-17T08:46:36.100Z,23.31
2022-11-17T08:47:35.968Z,23.26
2022-11-17T08:48:36.394Z,23.47
2022-11-17T08:49:35.928Z,23.31
2022-11-17T08:50:35.912Z,23.20
2022-11-17T08:51:35.901Z,22.72
2022-11-17T08:52:35.889Z,23.36
2022-11-17T08:53:35.868Z,23.31
2022-11-17T08:54:35.851Z,23.04
2022-11-17T08:55:40.752Z,23.31
2022-11-17T08:56:35.988Z,23.31
2022-11-17T08:57:35.869Z,23.31
2022-11-17T08:58:36.074Z,23.42
2022-11-17T08:59:35.790Z,23.42
2022-11-17T09:00:35.840Z,23.31
2022-11-17T09:01:35.812Z,23.31
2022-11-17T09:02:35.757Z,23.26
2022-11-17T09:03:35.738Z,22.72
2022-11-17T09:04:35.723Z,23.26
2022-11-17T09:05:35.716Z,23.26
2022-11-17T09:06:35.695Z,23.31
2022-11-17T09:07:35.852Z,23.47
2022-11-17T09:08:56.448Z,23.36
2022-11-17T09:09:36.784Z,22.77
2022-11-17T09:10:35.646Z,23.26
2022-11-17T09:11:35.631Z,23.31
2022-11-17T09:12:35.643Z,23.26
2022-11-17T09:13:35.601Z,23.31
2022-11-17T09:14:35.584Z,23.42
2022-11-17T09:15:35.574Z,22.77
2022-11-17T09:16:35.563Z,23.15
2022-11-17T09:17:35.542Z,23.31
2022-11-17T09:18:35.845Z,23.31
2022-11-17T09:19:35.524Z,23.26
2022-11-17T09:20:35.506Z,23.20
2022-11-17T09:21:35.499Z,23.47
2022-11-17T09:22:35.486Z,23.15
2022-11-17T09:23:35.788Z,23.31
2022-11-17T09:24:35.464Z,23.31
2022-11-17T09:25:35.484Z,23.36
2022-11-17T09:26:35.427Z,23.31
2022-11-17T09:27:35.452Z,23.36
2022-11-17T09:28:35.884Z,23.31
2022-11-17T09:29:35.445Z,23.36
2022-11-17T09:30:35.369Z,23.31
2022-11-17T09:31:35.420Z,23.31
2022-11-17T09:32:35.350Z,23.31
2022-11-17T09:33:35.331Z,23.26
2022-11-17T09:34:35.457Z,23.26
2022-11-17T09:35:35.303Z,23.26
2022-11-17T09:36:35.291Z,23.26
2022-11-17T09:37:35.276Z,23.31
2022-11-17T09:38:35.624Z,22.61
2022-11-17T09:39:35.254Z,23.53
2022-11-17T09:40:37.952Z,23.31
2022-11-17T09:41:35.231Z,23.26
2022-11-17T09:42:35.212Z,23.31
2022-11-17T09:43:35.210Z,23.31
2022-11-17T09:44:35.226Z,23.36
2022-11-17T09:45:35.176Z,23.53
2022-11-17T09:46:35.155Z,23.47
2022-11-17T09:47:35.150Z,23.26
2022-11-17T09:48:41.025Z,23.31
2022-11-17T09:49:36.148Z,22.72
2022-11-17T09:50:35.110Z,23.31
2022-11-17T09:51:35.109Z,23.26
2022-11-17T09:52:35.071Z,23.26
2022-11-17T09:53:35.320Z,23.31
2022-11-17T09:54:35.054Z,23.42
2022-11-17T09:55:35.067Z,23.20
2022-11-17T09:56:35.027Z,22.72
2022-11-17T09:57:35.033Z,22.67
2022-11-17T09:58:35.389Z,22.67
2022-11-17T09:59:35.127Z,23.36
2022-11-17T10:00:35.088Z,23.10
2022-11-17T10:01:34.964Z,22.67
2022-11-17T10:02:35.009Z,22.88
2022-11-17T10:03:38.748Z,23.26
2022-11-17T10:04:35.937Z,22.77
2022-11-17T10:05:34.909Z,22.72
2022-11-17T10:06:34.889Z,22.67
2022-11-17T10:07:34.994Z,23.31
2022-11-17T10:08:34.866Z,22.77
2022-11-17T10:09:34.844Z,22.88
2022-11-17T10:10:34.838Z,23.31
2022-11-17T10:11:34.825Z,22.67
2022-11-17T10:12:34.822Z,22.72
2022-11-17T10:13:35.156Z,23.26
2022-11-17T10:14:34.778Z,22.72
2022-11-17T10:15:34.768Z,22.88
2022-11-17T10:16:34.773Z,22.72
2022-11-17T10:17:34.739Z,22.72
2022-11-17T10:18:37.875Z,22.77
2022-11-17T10:19:34.722Z,22.83
2022-11-17T10:20:34.895Z,22.83
2022-11-17T10:21:34.695Z,22.77
2022-11-17T10:22:34.686Z,22.72
2022-11-17T10:23:35.049Z,22.72
2022-11-17T10:24:34.648Z,22.77
2022-11-17T10:25:34.638Z,22.72
2022-11-17T10:26:34.616Z,22.72
2022-11-17T10:27:34.619Z,22.72
2022-11-17T10:28:34.598Z,22.77
2022-11-17T10:29:34.582Z,22.77
2022-11-17T10:30:34.572Z,22.72
2022-11-17T10:31:34.564Z,23.04
2022-11-17T10:32:34.671Z,22.67
2022-11-17T10:33:34.881Z,22.61
2022-11-17T10:34:40.714Z,22.72
2022-11-17T10:35:35.534Z,22.67
2022-11-17T10:36:34.487Z,22.77
2022-11-17T10:37:34.478Z,22.83
2022-11-17T10:38:34.465Z,22.67
2022-11-17T10:39:34.451Z,22.72
2022-11-17T10:40:34.438Z,22.77
2022-11-17T10:41:34.427Z,22.72
2022-11-17T10:42:34.407Z,22.72
2022-11-17T10:43:34.854Z,22.67
2022-11-17T10:44:34.377Z,22.77
2022-11-17T10:45:34.362Z,22.72
2022-11-17T10:46:44.988Z,22.72
2022-11-17T10:47:35.368Z,22.67
2022-11-17T10:48:34.353Z,22.72
2022-11-17T10:49:34.320Z,22.72
2022-11-17T10:50:34.294Z,22.83
2022-11-17T10:51:34.286Z,22.72
2022-11-17T10:52:34.269Z,22.72
2022-11-17T10:53:38.114Z,22.72
2022-11-17T10:54:35.266Z,22.72
2022-11-17T10:55:34.229Z,22.77
2022-11-17T10:56:34.216Z,22.67
2022-11-17T10:57:34.204Z,22.72
2022-11-17T10:58:34.196Z,22.72
2022-11-17T10:59:34.181Z,22.72
2022-11-17T11:00:34.163Z,22.83
2022-11-17T11:01:34.203Z,22.67
2022-11-17T11:02:34.162Z,50.17
2022-11-17T11:03:34.453Z,50.22
2022-11-17T11:04:34.141Z,50.17
2022-11-17T11:05:34.099Z,50.17
2022-11-17T11:06:34.079Z,50.22
2022-11-17T11:07:34.103Z,50.17
2022-11-17T11:08:34.057Z,45.06
2022-11-17T11:09:34.042Z,40.18
2022-11-17T11:10:34.037Z,37.76
2022-11-17T11:11:36.449Z,36.74
2022-11-17T11:12:34.003Z,35.66
2022-11-17T11:13:34.240Z,34.54
2022-11-17T11:14:34.005Z,34.48
2022-11-17T11:15:33.966Z,33.30
2022-11-17T11:16:33.949Z,33.35
2022-11-17T11:17:33.938Z,32.33
2022-11-17T11:18:33.921Z,32.39
2022-11-17T11:19:33.907Z,31.15
2022-11-17T11:20:33.913Z,31.10
2022-11-17T11:21:33.879Z,30.19
2022-11-17T11:22:33.904Z,30.29
2022-11-17T11:23:33.859Z,30.19
2022-11-17T11:24:33.867Z,30.19
2022-11-17T11:25:33.832Z,29.59
2022-11-17T11:26:33.817Z,29.59
2022-11-17T11:27:33.808Z,29.22
2022-11-17T11:28:33.793Z,29.22
2022-11-17T11:29:33.779Z,29.33
2022-11-17T11:30:33.765Z,29.22
2022-11-17T11:31:33.751Z,29.17
2022-11-17T11:32:33.732Z,28.84
2022-11-17T11:33:33.722Z,28.74
2022-11-17T11:34:33.705Z,28.79
2022-11-17T11:35:33.697Z,28.74
2022-11-17T11:36:33.701Z,28.74
2022-11-17T11:37:33.664Z,28.20
2022-11-17T11:38:33.654Z,28.14
2022-11-17T11:39:33.642Z,28.20
2022-11-17T11:40:33.632Z,28.31
2022-11-17T11:41:33.614Z,27.88
2022-11-17T11:42:33.618Z,27.88
2022-11-17T11:43:33.588Z,27.88
2022-11-17T11:44:33.672Z,27.82
2022-11-17T11:45:33.576Z,27.98
2022-11-17T11:46:33.539Z,27.82
2022-11-17T11:47:33.529Z,27.88
2022-11-17T11:48:33.569Z,27.82
2022-11-17T11:49:33.508Z,27.82
2022-11-17T11:50:37.647Z,27.34
2022-11-17T11:51:34.513Z,27.55
2022-11-17T11:52:33.498Z,27.39
2022-11-17T11:53:33.453Z,27.39
2022-11-17T11:54:33.430Z,27.39
2022-11-17T11:55:33.424Z,27.45
2022-11-17T11:56:33.456Z,27.45
2022-11-17T11:57:33.465Z,27.39
2022-11-17T11:58:33.401Z,26.86
2022-11-17T11:59:33.382Z,27.45
2022-11-17T12:00:33.359Z,26.86
2022-11-17T12:01:33.362Z,26.96
2022-11-17T12:02:33.459Z,26.86
2022-11-17T12:03:33.357Z,26.86
2022-11-17T12:04:33.300Z,26.80
2022-11-17T12:05:33.292Z,26.69
2022-11-17T12:06:33.279Z,26.86
2022-11-17T12:07:33.347Z,26.48
2022-11-17T12:08:33.273Z,26.43
2022-11-17T12:09:33.247Z,26.43
2022-11-17T12:10:33.222Z,26.43
2022-11-17T12:11:33.228Z,26.48
2022-11-17T12:12:33.247Z,26.48
2022-11-17T12:13:33.188Z,26.48
2022-11-17T12:14:33.187Z,26.59
2022-11-17T12:15:33.184Z,26.48
2022-11-17T12:16:33.401Z,26.59
2022-11-17T12:17:33.137Z,26.43
2022-11-17T12:18:33.127Z,26.43
2022-11-17T12:19:33.105Z,26.53
2022-11-17T12:20:33.099Z,26.43
2022-11-17T12:21:33.111Z,26.43
2022-11-17T12:22:33.080Z,26.48
2022-11-17T12:23:33.067Z,26.43
2022-11-17T12:24:33.069Z,26.37
2022-11-17T12:25:33.062Z,26.00
2022-11-17T12:26:33.050Z,26.37
2022-11-17T12:27:33.026Z,26.10
2022-11-17T12:28:32.990Z,26.26
2022-11-17T12:29:33.001Z,26.16
2022-11-17T12:30:32.963Z,26.05
2022-11-17T12:31:32.986Z,26.05
2022-11-17T12:32:32.940Z,26.10
2022-11-17T12:33:33.188Z,26.05
2022-11-17T12:34:32.904Z,26.10
2022-11-17T12:35:32.891Z,26.05
2022-11-17T12:36:32.884Z,26.05
2022-11-17T12:37:32.902Z,26.05
2022-11-17T12:38:32.849Z,26.05
2022-11-17T12:39:32.850Z,26.10
2022-11-17T12:40:32.869Z,26.05
2022-11-17T12:41:32.838Z,25.89
2022-11-17T12:42:32.803Z,25.41
2022-11-17T12:43:32.851Z,26.05
2022-11-17T12:44:33.036Z,26.16
2022-11-17T12:45:36.282Z,26.16
2022-11-17T12:46:33.795Z,26.05
2022-11-17T12:47:32.730Z,26.10
2022-11-17T12:48:34.789Z,25.46
2022-11-17T12:49:32.702Z,25.73
2022-11-17T12:50:32.710Z,25.67
2022-11-17T12:51:32.698Z,25.57
2022-11-17T12:52:32.699Z,25.51